»·PEaware :: CGDXL KSBP-KSBA

CGDXL :: KSBP-KSBA

FLIGHT INFORMATION

Flight Status: Arrived
Operator: Unknown
More flights by this operator :: More flights under this callsign
Pilot: Pierre B. (1359)
Aircraft: BELLANCA AIRCRAFT CHAMP - CITABRIA
(CH7A)
More flights by this aircraft type
Origin: KSBP San Luis Co Regl
United States
Destination: KSBA Santa Barbara Mun
United States
More flights between these airports :: More routes between these airports
Route: +
File this flight plan on PilotEdge
Remarks:
Altitude:
(Current/Filed)
0ft
Speed:
(Current/Filed)
0kts
Departed: 08-Dec-12 12:44 PM
Arrived: 08-Dec-12 01:27 PM
Distance/Time
Traveled:
62nm/0:43
Distance/Time
To Go:
Arrived

Flight Plot

Page will automatically refresh every two minutes.


Map Options




Map Legend


Flown Route
Filed Route
Departure Airport
Arrival Airport
Navaid (VOR, NDB)
Fix

Horizontal Profiles

Position Reports

Time Latitude Longitude Heading Altitude Ground
Speed
08-Dec-12 12:41 35.238117 -120.639327 203 216ft 0kts
08-Dec-12 12:42 35.237261 -120.638930 130 216ft 18kts
08-Dec-12 12:43 35.233850 -120.632698 124 216ft 14kts
08-Dec-12 12:44 35.233366 -120.632510 214 216ft 0kts
08-Dec-12 12:45 35.233365 -120.632511 214 216ft 0kts
08-Dec-12 12:46 35.237819 -120.641471 298 366ft 83kts
08-Dec-12 12:47 35.252533 -120.663474 283 1350ft 82kts
08-Dec-12 12:48 35.238605 -120.674579 168 2088ft 94kts
08-Dec-12 12:49 35.215406 -120.649964 139 2063ft 118kts
08-Dec-12 12:50 35.193599 -120.620590 138 1983ft 110kts
08-Dec-12 12:51 35.172395 -120.598375 152 1988ft 96kts
08-Dec-12 12:52 35.150584 -120.579430 150 2003ft 96kts
08-Dec-12 12:53 35.129584 -120.558462 147 2015ft 97kts
08-Dec-12 12:54 35.108921 -120.537097 148 2026ft 97kts
08-Dec-12 12:55 35.088500 -120.515046 145 2038ft 98kts
08-Dec-12 12:56 35.068690 -120.492151 143 2051ft 98kts
08-Dec-12 12:57 35.049419 -120.468140 131 2024ft 104kts
08-Dec-12 12:58 35.032245 -120.441282 135 2068ft 100kts
08-Dec-12 12:59 35.011885 -120.421072 161 2072ft 92kts
08-Dec-12 13:00 34.989041 -120.405216 157 2077ft 94kts
08-Dec-12 13:01 34.965552 -120.391466 167 2083ft 92kts
08-Dec-12 13:02 34.942183 -120.377256 151 2088ft 97kts
08-Dec-12 13:03 34.921325 -120.356153 148 2110ft 97kts
08-Dec-12 13:04 34.900608 -120.335054 148 2126ft 97kts
08-Dec-12 13:05 34.879813 -120.313874 148 2143ft 97kts
08-Dec-12 13:06 34.859115 -120.292791 148 2160ft 97kts
08-Dec-12 13:07 34.838319 -120.271606 148 2177ft 97kts
08-Dec-12 13:08 34.817603 -120.250502 148 2194ft 97kts
08-Dec-12 13:09 34.796837 -120.229345 148 2211ft 97kts
08-Dec-12 13:10 34.776120 -120.208236 148 2228ft 97kts
08-Dec-12 13:11 34.755367 -120.187089 148 2245ft 97kts
08-Dec-12 13:12 34.734591 -120.165917 148 2261ft 97kts
08-Dec-12 13:13 34.713049 -120.144190 148 2043ft 108kts
08-Dec-12 13:14 34.691140 -120.122177 148 1997ft 98kts
08-Dec-12 13:15 34.670197 -120.100878 148 2000ft 98kts
08-Dec-12 13:16 34.650315 -120.080404 148 2408ft 94kts
08-Dec-12 13:17 34.629852 -120.059481 148 3055ft 96kts
08-Dec-12 13:18 34.609272 -120.038410 148 3692ft 97kts
08-Dec-12 13:19 34.589129 -120.016433 148 4329ft 96kts
08-Dec-12 13:20 34.568426 -119.992288 148 4498ft 106kts
08-Dec-12 13:21 34.547788 -119.967589 148 4499ft 103kts
08-Dec-12 13:22 34.527436 -119.943205 148 4500ft 103kts
08-Dec-12 13:23 34.507330 -119.918070 139 4204ft 109kts
08-Dec-12 13:24 34.491882 -119.885895 126 3334ft 107kts
08-Dec-12 13:25 34.478327 -119.856662 147 2455ft 75kts
08-Dec-12 13:26 34.461002 -119.849147 178 1001ft 56kts
08-Dec-12 13:27 34.445665 -119.845892 177 442ft 56kts
08-Dec-12 13:28 34.430645 -119.841476 172 23ft 49kts
08-Dec-12 13:29 34.426743 -119.841395 265 14ft 12kts
08-Dec-12 13:30 34.426647 -119.845821 267 14ft 12kts
08-Dec-12 13:31 34.427835 -119.846492 45 14ft 8kts
08-Dec-12 13:32 34.429082 -119.845220 46 14ft 0kts

Navigation Log

Ident Type
Flight plan parsing failed, navigation log unavailable